createdAt,value
2019-05-05T00:01:58.409Z,97284.98
2019-05-05T00:04:31.631Z,97284.11
2019-05-05T00:07:00.347Z,97257.95
2019-05-05T00:09:29.063Z,97271.31
2019-05-05T00:12:11.542Z,97285.59
2019-05-05T00:14:41.835Z,97273.44
2019-05-05T00:17:18.001Z,97262.54
2019-05-05T00:19:46.727Z,97270.73
2019-05-05T00:22:15.729Z,97276.79
2019-05-05T00:24:44.528Z,97289.02
2019-05-05T00:27:14.971Z,97290.47
2019-05-05T00:29:45.378Z,97289.61
2019-05-05T00:32:15.302Z,97274.44
2019-05-05T00:34:44.569Z,97271.78
2019-05-05T00:37:15.238Z,97260.94
2019-05-05T00:39:45.189Z,97267.92
2019-05-05T00:42:15.429Z,97272.67
2019-05-05T00:44:44.763Z,97268.38
2019-05-05T00:47:15.231Z,97277.50
2019-05-05T00:49:49.089Z,97277.94
2019-05-05T00:52:16.680Z,97272.77
2019-05-05T00:54:45.389Z,97275.82
2019-05-05T00:57:15.021Z,97269.73
2019-05-05T00:59:45.272Z,97268.80
2019-05-05T01:02:18.584Z,97264.89
2019-05-05T01:04:51.896Z,97260.15
2019-05-05T01:07:20.597Z,97251.91
2019-05-05T01:09:49.308Z,97248.52
2019-05-05T01:12:18.367Z,97245.04
2019-05-05T01:14:47.080Z,97241.52
2019-05-05T01:17:15.781Z,97244.11
2019-05-05T01:19:46.726Z,97246.72
2019-05-05T01:22:15.064Z,97239.84
2019-05-05T01:24:45.761Z,97237.72
2019-05-05T01:27:14.804Z,97235.61
2019-05-05T01:29:45.236Z,97242.11
2019-05-05T01:32:15.692Z,97246.44
2019-05-05T01:34:47.447Z,97264.18
2019-05-05T01:37:17.726Z,97257.27
2019-05-05T01:39:48.001Z,97252.47
2019-05-05T01:42:16.857Z,97244.23
2019-05-05T01:44:45.562Z,97246.32
2019-05-05T01:47:14.900Z,97243.70
2019-05-05T01:49:45.235Z,97242.78
2019-05-05T01:52:14.864Z,97250.17
2019-05-05T01:54:44.589Z,97248.92
2019-05-05T01:57:14.782Z,97250.70
2019-05-05T01:59:44.810Z,97245.02
2019-05-05T02:02:14.638Z,97245.79
2019-05-05T02:04:44.751Z,97238.84
2019-05-05T02:07:14.557Z,97234.58
2019-05-05T02:09:44.907Z,97231.64
2019-05-05T02:12:15.874Z,97226.44
2019-05-05T02:14:44.560Z,97219.48
2019-05-05T02:17:14.393Z,97226.41
2019-05-05T02:19:44.312Z,97223.33
2019-05-05T02:22:14.660Z,97208.95
2019-05-05T02:24:44.399Z,97203.19
2019-05-05T02:27:14.589Z,97206.26
2019-05-05T02:29:44.978Z,97201.13
2019-05-05T02:32:21.459Z,97199.47
2019-05-05T02:34:51.720Z,97204.24
2019-05-05T02:37:20.420Z,97207.71
2019-05-05T02:39:58.078Z,97205.63
2019-05-05T02:42:24.759Z,97200.78
2019-05-05T02:44:54.451Z,97193.35
2019-05-05T02:47:45.099Z,97188.44
2019-05-05T02:50:15.546Z,97181.04
2019-05-05T02:52:45.534Z,97174.05
2019-05-05T02:55:15.439Z,97178.25
2019-05-05T02:57:44.291Z,97181.26
2019-05-05T03:00:17.184Z,97187.27
2019-05-05T03:02:46.086Z,97190.21
2019-05-05T03:05:14.947Z,97195.70
2019-05-05T03:07:44.347Z,97199.16
2019-05-05T03:10:14.091Z,97199.16
2019-05-05T03:12:44.005Z,97193.23
2019-05-05T03:15:15.605Z,97200.09
2019-05-05T03:17:44.612Z,97215.98
2019-05-05T03:20:14.545Z,97212.97
2019-05-05T03:22:43.532Z,97211.25
2019-05-05T03:25:13.588Z,97214.21
2019-05-05T03:27:44.491Z,97213.32
2019-05-05T03:30:15.500Z,97205.92
2019-05-05T03:32:45.545Z,97203.70
2019-05-05T03:35:14.597Z,97200.30
2019-05-05T03:37:44.600Z,97205.85
2019-05-05T03:40:15.059Z,97191.09
2019-05-05T03:42:57.556Z,97188.59
2019-05-05T03:45:31.509Z,97182.14
2019-05-05T03:48:00.210Z,97188.98
2019-05-05T03:50:29.571Z,97195.38
2019-05-05T03:52:58.274Z,97196.48
2019-05-05T03:55:27.082Z,97199.33
2019-05-05T03:57:56.532Z,97202.53
2019-05-05T04:00:30.784Z,97204.86
2019-05-05T04:03:01.117Z,97209.78
2019-05-05T04:05:31.697Z,97197.93
2019-05-05T04:08:01.389Z,97202.41
2019-05-05T04:10:30.134Z,97197.80
2019-05-05T04:13:00.346Z,97196.87
2019-05-05T04:15:29.058Z,97193.44
2019-05-05T04:18:11.445Z,97193.72
2019-05-05T04:20:40.141Z,97204.63
2019-05-05T04:23:08.845Z,97219.77
2019-05-05T04:25:37.607Z,97224.89
2019-05-05T04:28:06.320Z,97222.51
2019-05-05T04:30:35.028Z,97233.67
2019-05-05T04:33:04.305Z,97236.61
2019-05-05T04:35:33.993Z,97244.64
2019-05-05T04:38:04.790Z,97253.31
2019-05-05T04:40:34.558Z,97261.45
2019-05-05T04:43:03.960Z,97262.66
2019-05-05T04:45:34.743Z,97275.56
2019-05-05T04:48:04.998Z,97281.04
2019-05-05T04:50:35.288Z,97284.70
2019-05-05T04:53:05.565Z,97269.86
2019-05-05T04:55:34.311Z,97262.56
2019-05-05T04:58:04.638Z,97257.92
2019-05-05T05:00:34.190Z,97262.77
2019-05-05T05:03:04.642Z,97249.58
2019-05-05T05:05:34.892Z,97253.52
2019-05-05T05:08:03.850Z,97254.02
2019-05-05T05:10:34.540Z,97254.80
2019-05-05T05:13:04.620Z,97268.25
2019-05-05T05:15:34.079Z,97260.65
2019-05-05T05:18:04.538Z,97254.87
2019-05-05T05:20:33.975Z,97249.81
2019-05-05T05:23:03.612Z,97250.56
2019-05-05T05:25:34.449Z,97237.16
2019-05-05T05:28:04.227Z,97242.39
2019-05-05T05:30:34.747Z,97244.77
2019-05-05T05:33:04.324Z,97244.63
2019-05-05T05:35:33.676Z,97219.26
2019-05-05T05:38:04.469Z,97223.37
2019-05-05T05:40:37.277Z,97226.70
2019-05-05T05:43:07.562Z,97229.70
2019-05-05T05:45:43.730Z,97224.38
2019-05-05T05:48:16.753Z,97228.59
2019-05-05T05:50:47.039Z,97244.88
2019-05-05T05:53:15.807Z,97244.48
2019-05-05T05:55:44.843Z,97242.48
2019-05-05T05:58:14.169Z,97248.20
2019-05-05T06:00:44.238Z,97251.89
2019-05-05T06:03:14.147Z,97249.20
2019-05-05T06:05:47.852Z,97260.07
2019-05-05T06:08:16.622Z,97275.44
2019-05-05T06:10:45.343Z,97287.16
2019-05-05T06:13:15.270Z,97281.40
2019-05-05T06:15:44.573Z,97263.50
2019-05-05T06:18:14.030Z,97251.80
2019-05-05T06:20:44.544Z,97254.84
2019-05-05T06:23:14.699Z,97242.33
2019-05-05T06:25:44.546Z,97251.70
2019-05-05T06:28:15.244Z,97281.44
2019-05-05T06:30:44.429Z,97300.88
2019-05-05T06:33:13.777Z,97301.80
2019-05-05T06:35:44.337Z,97296.60
2019-05-05T06:38:13.675Z,97302.46
2019-05-05T06:40:44.499Z,97294.14
2019-05-05T06:43:26.956Z,97284.47
2019-05-05T06:45:57.290Z,97270.34
2019-05-05T06:48:26.004Z,97276.56
2019-05-05T06:50:54.706Z,97279.67
2019-05-05T06:53:23.885Z,97287.91
2019-05-05T06:55:54.276Z,97295.47
2019-05-05T06:58:24.133Z,97294.26
2019-05-05T07:00:54.309Z,97290.56
2019-05-05T07:03:24.363Z,97294.31
2019-05-05T07:05:53.899Z,97291.16
2019-05-05T07:08:24.343Z,97292.97
2019-05-05T07:10:54.873Z,97281.89
2019-05-05T07:13:24.472Z,97289.00
2019-05-05T07:15:54.221Z,97287.27
2019-05-05T07:18:24.705Z,97284.62
2019-05-05T07:20:54.521Z,97286.95
2019-05-05T07:23:24.659Z,97285.97
2019-05-05T07:25:54.951Z,97311.86
2019-05-05T07:28:23.846Z,97296.44
2019-05-05T07:30:54.577Z,97290.72
2019-05-05T07:33:23.855Z,97273.91
2019-05-05T07:35:59.549Z,97271.31
2019-05-05T07:38:24.760Z,97308.75
2019-05-05T07:40:54.515Z,97321.22
2019-05-05T07:43:23.976Z,97311.47
2019-05-05T07:45:53.993Z,97298.41
2019-05-05T07:48:24.311Z,97287.58
2019-05-05T07:51:02.041Z,97287.41
2019-05-05T07:53:24.478Z,97281.60
2019-05-05T07:55:54.166Z,97270.82
2019-05-05T07:58:24.300Z,97280.42
2019-05-05T08:00:54.122Z,97280.32
2019-05-05T08:03:23.668Z,97271.67
2019-05-05T08:05:54.410Z,97280.95
2019-05-05T08:08:24.541Z,97294.78
2019-05-05T08:10:54.174Z,97288.58
2019-05-05T08:13:24.298Z,97279.34
2019-05-05T08:15:59.762Z,97292.45
2019-05-05T08:18:26.757Z,97288.18
2019-05-05T08:21:05.995Z,97280.29
2019-05-05T08:23:53.994Z,97279.38
2019-05-05T08:26:24.411Z,97277.80
2019-05-05T08:28:57.414Z,97280.33
2019-05-05T08:31:27.706Z,97282.62
2019-05-05T08:33:56.421Z,97277.69
2019-05-05T08:36:25.170Z,97280.64
2019-05-05T08:38:54.653Z,97287.19
2019-05-05T08:41:24.395Z,97271.01
2019-05-05T08:43:54.310Z,97264.02
2019-05-05T08:46:24.753Z,97261.58
2019-05-05T08:48:53.825Z,97265.63
2019-05-05T08:51:24.579Z,97258.53
2019-05-05T08:53:54.614Z,97261.72
2019-05-05T08:56:24.023Z,97262.63
2019-05-05T08:58:54.495Z,97258.59
2019-05-05T09:01:23.895Z,97262.17
2019-05-05T09:03:53.567Z,97259.14
2019-05-05T09:06:24.177Z,97257.80
2019-05-05T09:08:54.743Z,97253.02
2019-05-05T09:11:24.035Z,97245.44
2019-05-05T09:13:53.532Z,97242.56
2019-05-05T09:16:24.172Z,97231.50
2019-05-05T09:19:09.858Z,97230.91
2019-05-05T09:21:38.569Z,97226.70
2019-05-05T09:24:25.441Z,97225.88
2019-05-05T09:26:55.729Z,97222.09
2019-05-05T09:29:25.998Z,97221.88
2019-05-05T09:31:54.703Z,97217.47
2019-05-05T09:34:24.020Z,97231.98
2019-05-05T09:36:54.462Z,97228.23
2019-05-05T09:39:23.941Z,97235.73
2019-05-05T09:41:53.587Z,97226.84
2019-05-05T09:44:24.161Z,97215.35
2019-05-05T09:46:53.806Z,97204.20
2019-05-05T09:49:24.664Z,97197.06
2019-05-05T09:51:54.494Z,97208.34
2019-05-05T09:54:24.298Z,97217.38
2019-05-05T09:56:53.841Z,97211.44
2019-05-05T09:59:24.009Z,97196.62
2019-05-05T10:01:53.892Z,97199.41
2019-05-05T10:04:24.287Z,97188.86
2019-05-05T10:06:53.116Z,97192.12
2019-05-05T10:09:24.050Z,97194.75
2019-05-05T10:11:54.014Z,97198.34
2019-05-05T10:14:22.913Z,97202.91
2019-05-05T10:16:51.635Z,97209.48
2019-05-05T10:19:20.354Z,97213.20
2019-05-05T10:21:49.173Z,97201.23
2019-05-05T10:24:28.622Z,97193.95
2019-05-05T10:26:49.928Z,97185.59
2019-05-05T10:29:18.643Z,97187.79
2019-05-05T10:31:47.352Z,97176.24
2019-05-05T10:34:17.644Z,97168.88
2019-05-05T10:36:46.349Z,97149.84
2019-05-05T10:39:24.055Z,97163.67
2019-05-05T10:41:53.513Z,97164.85
2019-05-05T10:44:23.303Z,97166.83
2019-05-05T10:46:53.886Z,97164.52
2019-05-05T10:49:24.432Z,97149.03
2019-05-05T10:51:54.364Z,97129.55
2019-05-05T10:54:23.721Z,97116.45
2019-05-05T10:56:52.478Z,97129.59
2019-05-05T10:59:21.195Z,97121.75
2019-05-05T11:01:49.902Z,97126.44
2019-05-05T11:04:18.653Z,97133.10
2019-05-05T11:06:47.367Z,97146.59
2019-05-05T11:09:16.080Z,97136.72
2019-05-05T11:11:44.828Z,97129.58
2019-05-05T11:14:14.162Z,97117.50
2019-05-05T11:16:43.869Z,97107.82
2019-05-05T11:19:13.686Z,97116.45
2019-05-05T11:21:43.547Z,97133.08
2019-05-05T11:24:14.566Z,97123.42
2019-05-05T11:26:44.558Z,97132.11
2019-05-05T11:29:13.643Z,97124.62
2019-05-05T11:31:42.428Z,97123.22
2019-05-05T11:34:14.019Z,97128.09
2019-05-05T11:36:44.471Z,97124.05
2019-05-05T11:39:14.779Z,97116.12
2019-05-05T11:41:44.112Z,97121.11
2019-05-05T11:44:15.000Z,97124.47
2019-05-05T11:46:44.273Z,97127.41
2019-05-05T11:49:13.948Z,97137.67
2019-05-05T11:51:43.704Z,97129.48
2019-05-05T11:54:14.041Z,97126.02
2019-05-05T11:56:44.731Z,97125.32
2019-05-05T11:59:14.405Z,97122.11
2019-05-05T12:01:44.000Z,97124.75
2019-05-05T12:04:14.715Z,97130.31
2019-05-05T12:06:44.266Z,97128.61
2019-05-05T12:09:14.839Z,97126.22
2019-05-05T12:11:43.897Z,97131.10
2019-05-05T12:14:14.430Z,97132.25
2019-05-05T12:16:43.875Z,97122.58
2019-05-05T12:19:13.752Z,97114.39
2019-05-05T12:21:44.206Z,97115.02
2019-05-05T12:24:14.701Z,97117.70
2019-05-05T12:26:54.288Z,97119.24
2019-05-05T12:29:24.574Z,97122.38
2019-05-05T12:31:53.426Z,97106.58
2019-05-05T12:34:23.637Z,97102.28
2019-05-05T12:36:53.982Z,97103.05
2019-05-05T12:39:22.919Z,97105.34
2019-05-05T12:41:51.669Z,97098.69
2019-05-05T12:44:23.642Z,97099.39
2019-05-05T12:46:57.050Z,97089.38
2019-05-05T12:49:25.759Z,97091.84
2019-05-05T12:51:54.467Z,97090.17
2019-05-05T12:54:24.540Z,97087.66
2019-05-05T12:56:53.956Z,97082.45
2019-05-05T12:59:24.992Z,97074.65
2019-05-05T13:01:54.702Z,97075.71
2019-05-05T13:04:24.621Z,97073.25
2019-05-05T13:06:54.022Z,97071.86
2019-05-05T13:09:24.375Z,97068.95
2019-05-05T13:11:54.170Z,97079.27
2019-05-05T13:14:23.081Z,97077.05
2019-05-05T13:16:53.881Z,97082.65
2019-05-05T13:19:24.323Z,97085.13
2019-05-05T13:22:00.391Z,97076.78
2019-05-05T13:24:43.585Z,97073.38
2019-05-05T13:27:19.439Z,97076.50
2019-05-05T13:29:47.695Z,97071.52
2019-05-05T13:32:16.409Z,97071.54
2019-05-05T13:34:45.169Z,97061.91
2019-05-05T13:37:14.205Z,97066.91
2019-05-05T13:39:44.565Z,97068.69
2019-05-05T13:42:13.937Z,97075.13
2019-05-05T13:45:03.945Z,97077.47
2019-05-05T13:47:34.370Z,97071.02
2019-05-05T13:50:08.952Z,97070.73
2019-05-05T13:52:37.674Z,97071.83
2019-05-05T13:55:09.525Z,97071.75
2019-05-05T13:57:38.241Z,97070.37
2019-05-05T14:00:09.442Z,97064.62
2019-05-05T14:02:38.189Z,97070.66
2019-05-05T14:05:07.806Z,97076.03
2019-05-05T14:07:36.513Z,97077.20
2019-05-05T14:10:06.227Z,97075.06
2019-05-05T14:12:34.944Z,97076.08
2019-05-05T14:15:04.154Z,97075.30
2019-05-05T14:17:32.917Z,97078.95
2019-05-05T14:20:07.937Z,97086.59
2019-05-05T14:22:32.064Z,97087.69
2019-05-05T14:25:04.231Z,97076.27
2019-05-05T14:27:32.819Z,97087.88
2019-05-05T14:30:04.047Z,97089.41
2019-05-05T14:32:34.656Z,97093.80
2019-05-05T14:35:14.636Z,97092.19
2019-05-05T14:37:44.987Z,97089.47
2019-05-05T14:40:14.099Z,97100.47
2019-05-05T14:42:43.483Z,97105.05
2019-05-05T14:45:15.361Z,97104.02
2019-05-05T14:47:44.278Z,97096.78
2019-05-05T14:50:13.436Z,97099.32
2019-05-05T14:52:43.985Z,97099.16
2019-05-05T14:55:14.062Z,97101.79
2019-05-05T14:57:44.051Z,97107.02
2019-05-05T15:00:15.650Z,97088.75
2019-05-05T15:02:44.401Z,97093.00
2019-05-05T15:05:30.837Z,97101.75
2019-05-05T15:08:16.498Z,97102.13
2019-05-05T15:11:04.884Z,97110.34
2019-05-05T15:13:33.734Z,97114.95
2019-05-05T15:16:04.034Z,97114.27
2019-05-05T15:18:34.583Z,97096.07
2019-05-05T15:21:03.416Z,97099.41
2019-05-05T15:23:32.125Z,97094.78
2019-05-05T15:26:00.878Z,97095.30
2019-05-05T15:28:29.589Z,97086.64
2019-05-05T15:30:58.294Z,97085.18
2019-05-05T15:33:27.019Z,97081.87
2019-05-05T15:35:55.748Z,97074.26
2019-05-05T15:38:24.594Z,97070.33
2019-05-05T15:40:54.714Z,97053.02
2019-05-05T15:43:24.269Z,97044.62
2019-05-05T15:45:54.690Z,97049.30
2019-05-05T15:48:25.305Z,97051.89
2019-05-05T15:50:55.507Z,97057.73
2019-05-05T15:53:25.719Z,97058.36
2019-05-05T15:55:55.140Z,97044.31
2019-05-05T15:58:26.150Z,97037.41
2019-05-05T16:01:00.825Z,97034.32
2019-05-05T16:03:31.167Z,97040.14
2019-05-05T16:06:04.833Z,97040.42
2019-05-05T16:08:36.430Z,97033.63
2019-05-05T16:11:05.501Z,97033.36
2019-05-05T16:13:35.452Z,97030.64
2019-05-05T16:16:09.556Z,97032.91
2019-05-05T16:18:46.256Z,97042.23
2019-05-05T16:21:16.927Z,97029.81
2019-05-05T16:23:48.395Z,97026.17
2019-05-05T16:26:17.883Z,97026.63
2019-05-05T16:28:47.934Z,97027.87
2019-05-05T16:31:19.305Z,97031.05
2019-05-05T16:33:48.723Z,97025.00
2019-05-05T16:36:17.499Z,97035.41
2019-05-05T16:38:46.282Z,97043.44
2019-05-05T16:41:15.435Z,97048.25
2019-05-05T16:43:44.396Z,97056.05
2019-05-05T16:46:16.743Z,97063.37
2019-05-05T16:48:44.017Z,97062.17
2019-05-05T16:51:14.329Z,97051.91
2019-05-05T16:53:43.136Z,97056.91
2019-05-05T16:56:14.116Z,97050.38
2019-05-05T16:58:44.882Z,97047.69
2019-05-05T17:01:14.976Z,97049.80
2019-05-05T17:03:45.846Z,97041.09
2019-05-05T17:06:14.761Z,97043.08
2019-05-05T17:08:44.427Z,97049.59
2019-05-05T17:11:15.085Z,97052.13
2019-05-05T17:14:03.799Z,97052.87
2019-05-05T17:16:35.279Z,97057.88
2019-05-05T17:19:14.888Z,97060.97
2019-05-05T17:21:54.369Z,97063.31
2019-05-05T17:24:23.972Z,97053.24
2019-05-05T17:26:54.874Z,97052.91
2019-05-05T17:29:23.592Z,97059.86
2019-05-05T17:31:53.958Z,97069.34
2019-05-05T17:34:24.742Z,97073.42
2019-05-05T17:36:53.674Z,97073.95
2019-05-05T17:39:23.791Z,97074.13
2019-05-05T17:41:54.226Z,97072.02
2019-05-05T17:44:39.341Z,97075.47
2019-05-05T17:47:18.657Z,97077.77
2019-05-05T17:49:57.703Z,97075.81
2019-05-05T17:52:40.181Z,97074.00
2019-05-05T17:55:28.648Z,97075.59
2019-05-05T17:58:02.380Z,97078.25
2019-05-05T18:00:30.198Z,97069.77
2019-05-05T18:02:58.890Z,97079.58
2019-05-05T18:05:45.361Z,97084.14
2019-05-05T18:08:33.649Z,97090.84
2019-05-05T18:11:03.993Z,97086.78
2019-05-05T18:13:43.533Z,97089.09
2019-05-05T18:16:14.016Z,97090.85
2019-05-05T18:18:44.445Z,97088.67
2019-05-05T18:21:14.254Z,97088.11
2019-05-05T18:23:43.869Z,97096.58
2019-05-05T18:26:13.657Z,97094.00
2019-05-05T18:28:44.812Z,97098.41
2019-05-05T18:31:13.896Z,97092.29
2019-05-05T18:33:42.804Z,97099.13
2019-05-05T18:36:11.520Z,97099.07
2019-05-05T18:38:40.227Z,97105.23
2019-05-05T18:41:10.547Z,97111.22
2019-05-05T18:43:40.835Z,97109.30
2019-05-05T18:46:09.549Z,97106.66
2019-05-05T18:48:38.270Z,97100.14
2019-05-05T18:51:06.982Z,97102.50
2019-05-05T18:53:35.733Z,97100.55
2019-05-05T18:56:04.480Z,97100.81
2019-05-05T18:58:34.267Z,97109.66
2019-05-05T19:01:04.622Z,97111.45
2019-05-05T19:03:43.890Z,97116.83
2019-05-05T19:06:16.913Z,97122.75
2019-05-05T19:08:54.133Z,97119.00
2019-05-05T19:11:18.578Z,97118.18
2019-05-05T19:13:47.288Z,97123.38
2019-05-05T19:16:16.038Z,97124.33
2019-05-05T19:18:44.885Z,97125.88
2019-05-05T19:21:15.109Z,97125.09
2019-05-05T19:23:44.743Z,97122.63
2019-05-05T19:26:14.537Z,97119.73
2019-05-05T19:28:46.907Z,97128.47
2019-05-05T19:31:14.074Z,97124.86
2019-05-05T19:33:44.224Z,97124.30
2019-05-05T19:36:12.942Z,97124.69
2019-05-05T19:38:44.001Z,97122.78
2019-05-05T19:41:14.279Z,97121.91
2019-05-05T19:43:55.284Z,97122.52
2019-05-05T19:46:26.477Z,97126.39
2019-05-05T19:48:59.520Z,97127.58
2019-05-05T19:51:28.234Z,97126.32
2019-05-05T19:53:56.945Z,97134.04
2019-05-05T19:56:25.655Z,97130.95
2019-05-05T19:59:00.731Z,97123.78
2019-05-05T20:01:34.480Z,97131.38
2019-05-05T20:03:55.291Z,97124.49
2019-05-05T20:06:24.049Z,97129.41
2019-05-05T20:08:53.688Z,97119.45
2019-05-05T20:11:24.613Z,97121.88
2019-05-05T20:14:04.747Z,97127.08
2019-05-05T20:16:25.079Z,97119.19
2019-05-05T20:18:54.646Z,97114.75
2019-05-05T20:21:23.755Z,97112.13
2019-05-05T20:23:52.549Z,97108.00
2019-05-05T20:26:21.226Z,97109.45
2019-05-05T20:28:49.984Z,97108.62
2019-05-05T20:31:18.702Z,97109.63
2019-05-05T20:34:05.277Z,97114.08
2019-05-05T20:36:35.558Z,97116.38
2019-05-05T20:39:06.421Z,97111.50
2019-05-05T20:41:35.140Z,97112.56
2019-05-05T20:44:05.781Z,97108.53
2019-05-05T20:46:34.398Z,97109.89
2019-05-05T20:49:03.950Z,97117.39
2019-05-05T20:51:33.973Z,97114.14
2019-05-05T20:54:04.754Z,97109.83
2019-05-05T20:56:33.781Z,97111.86
2019-05-05T20:59:02.714Z,97093.91
2019-05-05T21:01:31.523Z,97099.16
2019-05-05T21:04:00.245Z,97100.30
2019-05-05T21:06:28.951Z,97100.77
2019-05-05T21:08:57.660Z,97096.80
2019-05-05T21:11:26.405Z,97103.39
2019-05-05T21:13:55.105Z,97096.02
2019-05-05T21:16:23.832Z,97100.68
2019-05-05T21:18:53.887Z,97105.26
2019-05-05T21:21:24.861Z,97112.98
2019-05-05T21:24:05.731Z,97121.14
2019-05-05T21:26:51.348Z,97122.16
2019-05-05T21:29:20.088Z,97115.61
2019-05-05T21:31:48.793Z,97120.22
2019-05-05T21:34:17.559Z,97121.21
2019-05-05T21:36:46.269Z,97124.28
2019-05-05T21:39:15.379Z,97115.32
2019-05-05T21:41:44.101Z,97120.95
2019-05-05T21:44:14.710Z,97117.16
2019-05-05T21:46:43.818Z,97113.75
2019-05-05T21:49:13.614Z,97107.45
2019-05-05T21:51:44.145Z,97105.08
2019-05-05T21:54:30.881Z,97111.78
2019-05-05T21:57:01.179Z,97116.73
2019-05-05T21:59:29.877Z,97113.52
2019-05-05T22:01:58.590Z,97106.88
2019-05-05T22:04:27.350Z,97108.32
2019-05-05T22:06:56.076Z,97108.28
2019-05-05T22:09:24.783Z,97105.89
2019-05-05T22:11:54.489Z,97107.13
2019-05-05T22:14:23.379Z,97113.44
2019-05-05T22:16:53.880Z,97128.91
2019-05-05T22:19:24.139Z,97131.80
2019-05-05T22:22:00.222Z,97126.45
2019-05-05T22:24:28.929Z,97138.27
2019-05-05T22:26:57.644Z,97137.63
2019-05-05T22:29:26.360Z,97137.38
2019-05-05T22:31:55.070Z,97133.49
2019-05-05T22:34:24.203Z,97133.09
2019-05-05T22:36:52.912Z,97128.11
2019-05-05T22:39:24.109Z,97117.70
2019-05-05T22:41:54.142Z,97116.99
2019-05-05T22:44:24.305Z,97102.70
2019-05-05T22:46:53.762Z,97100.45
2019-05-05T22:51:50.224Z,97094.02
2019-05-05T22:54:18.938Z,97093.66
2019-05-05T22:56:47.645Z,97094.68
2019-05-05T22:59:16.355Z,97092.01
2019-05-05T23:01:45.073Z,97099.31
2019-05-05T23:04:27.415Z,97097.04
2019-05-05T23:07:09.865Z,97109.38
2019-05-05T23:09:38.576Z,97111.96
2019-05-05T23:12:07.280Z,97122.91
2019-05-05T23:14:35.990Z,97124.95
2019-05-05T23:17:21.278Z,97126.21
2019-05-05T23:19:53.426Z,97120.52
2019-05-05T23:22:38.895Z,97129.22
2019-05-05T23:25:09.213Z,97128.88
2019-05-05T23:27:47.357Z,97142.12
2019-05-05T23:30:16.777Z,97145.29
2019-05-05T23:32:47.389Z,97136.60
2019-05-05T23:35:16.698Z,97141.39
2019-05-05T23:37:46.507Z,97147.35
2019-05-05T23:40:25.529Z,97144.97
2019-05-05T23:42:54.646Z,97141.34
2019-05-05T23:45:24.808Z,97144.78
2019-05-05T23:47:54.629Z,97148.85
2019-05-05T23:50:23.680Z,97144.08
2019-05-05T23:52:54.529Z,97149.80
2019-05-05T23:55:23.962Z,97153.38
2019-05-05T23:57:54.797Z,97159.36
